sensor_id;sensor_type;location;lat;lon;timestamp;P1;durP1;ratioP1;P2;durP2;ratioP2
9968;SDS011;5025;48.890;9.278;2023-03-01T00:02:10;10.67;;;9.17;;
9968;SDS011;5025;48.890;9.278;2023-03-01T00:04:35;9.53;;;8.37;;
9968;SDS011;5025;48.890;9.278;2023-03-01T00:07:01;10.40;;;9.30;;
9968;SDS011;5025;48.890;9.278;2023-03-01T00:09:26;10.77;;;9.67;;
9968;SDS011;5025;48.890;9.278;2023-03-01T00:11:52;13.10;;;10.20;;
9968;SDS011;5025;48.890;9.278;2023-03-01T00:14:17;9.63;;;8.67;;
9968;SDS011;5025;48.890;9.278;2023-03-01T00:16:43;10.63;;;9.53;;
9968;SDS011;5025;48.890;9.278;2023-03-01T00:19:13;10.93;;;9.80;;
9968;SDS011;5025;48.890;9.278;2023-03-01T00:21:41;11.63;;;10.37;;
9968;SDS011;5025;48.890;9.278;2023-03-01T00:24:06;15.63;;;11.20;;
9968;SDS011;5025;48.890;9.278;2023-03-01T00:26:32;12.13;;;10.80;;
9968;SDS011;5025;48.890;9.278;2023-03-01T00:28:58;11.23;;;10.03;;
9968;SDS011;5025;48.890;9.278;2023-03-01T00:31:25;11.83;;;10.63;;
9968;SDS011;5025;48.890;9.278;2023-03-01T00:33:53;10.53;;;9.43;;
9968;SDS011;5025;48.890;9.278;2023-03-01T00:36:22;10.40;;;9.27;;
9968;SDS011;5025;48.890;9.278;2023-03-01T00:38:48;11.50;;;10.20;;
9968;SDS011;5025;48.890;9.278;2023-03-01T00:41:14;11.87;;;10.67;;
9968;SDS011;5025;48.890;9.278;2023-03-01T00:43:41;12.53;;;9.77;;
9968;SDS011;5025;48.890;9.278;2023-03-01T00:46:12;10.43;;;9.33;;
9968;SDS011;5025;48.890;9.278;2023-03-01T00:48:39;12.20;;;10.30;;
9968;SDS011;5025;48.890;9.278;2023-03-01T00:51:05;10.47;;;9.47;;
9968;SDS011;5025;48.890;9.278;2023-03-01T00:53:35;15.33;;;11.60;;
9968;SDS011;5025;48.890;9.278;2023-03-01T00:56:01;10.83;;;9.70;;
9968;SDS011;5025;48.890;9.278;2023-03-01T00:58:28;10.73;;;9.63;;
9968;SDS011;5025;48.890;9.278;2023-03-01T01:00:53;11.63;;;10.03;;
9968;SDS011;5025;48.890;9.278;2023-03-01T01:03:19;11.20;;;10.07;;
9968;SDS011;5025;48.890;9.278;2023-03-01T01:05:44;11.23;;;10.10;;
9968;SDS011;5025;48.890;9.278;2023-03-01T01:08:10;12.10;;;10.80;;
9968;SDS011;5025;48.890;9.278;2023-03-01T01:10:35;11.70;;;10.50;;
9968;SDS011;5025;48.890;9.278;2023-03-01T01:13:01;12.47;;;10.83;;
9968;SDS011;5025;48.890;9.278;2023-03-01T01:15:26;12.77;;;10.97;;
9968;SDS011;5025;48.890;9.278;2023-03-01T01:17:52;12.20;;;10.60;;
9968;SDS011;5025;48.890;9.278;2023-03-01T01:20:18;10.93;;;9.83;;
9968;SDS011;5025;48.890;9.278;2023-03-01T01:22:43;11.27;;;10.00;;
9968;SDS011;5025;48.890;9.278;2023-03-01T01:25:08;12.07;;;10.30;;
9968;SDS011;5025;48.890;9.278;2023-03-01T01:27:34;10.77;;;9.67;;
9968;SDS011;5025;48.890;9.278;2023-03-01T01:29:59;11.43;;;10.23;;
9968;SDS011;5025;48.890;9.278;2023-03-01T01:32:24;10.77;;;9.67;;
9968;SDS011;5025;48.890;9.278;2023-03-01T01:34:50;11.00;;;9.67;;
9968;SDS011;5025;48.890;9.278;2023-03-01T01:37:15;10.93;;;9.83;;
9968;SDS011;5025;48.890;9.278;2023-03-01T01:39:40;11.77;;;10.20;;
9968;SDS011;5025;48.890;9.278;2023-03-01T01:42:06;12.17;;;10.63;;
9968;SDS011;5025;48.890;9.278;2023-03-01T01:44:32;11.00;;;9.90;;
9968;SDS011;5025;48.890;9.278;2023-03-01T01:47:00;12.83;;;10.33;;
9968;SDS011;5025;48.890;9.278;2023-03-01T01:49:56;11.50;;;10.30;;
9968;SDS011;5025;48.890;9.278;2023-03-01T01:52:26;11.37;;;10.27;;
9968;SDS011;5025;48.890;9.278;2023-03-01T01:57:29;10.97;;;9.67;;
9968;SDS011;5025;48.890;9.278;2023-03-01T01:59:59;11.37;;;10.27;;
9968;SDS011;5025;48.890;9.278;2023-03-01T02:02:29;12.50;;;11.07;;
9968;SDS011;5025;48.890;9.278;2023-03-01T02:05:00;11.70;;;10.50;;
9968;SDS011;5025;48.890;9.278;2023-03-01T02:07:35;12.43;;;10.93;;
9968;SDS011;5025;48.890;9.278;2023-03-01T02:10:03;12.70;;;11.23;;
9968;SDS011;5025;48.890;9.278;2023-03-01T02:12:28;11.77;;;10.43;;
9968;SDS011;5025;48.890;9.278;2023-03-01T02:14:54;11.60;;;10.40;;
9968;SDS011;5025;48.890;9.278;2023-03-01T02:17:19;12.50;;;10.80;;
9968;SDS011;5025;48.890;9.278;2023-03-01T02:22:32;14.17;;;11.70;;
9968;SDS011;5025;48.890;9.278;2023-03-01T02:30:21;13.43;;;11.80;;
9968;SDS011;5025;48.890;9.278;2023-03-01T02:32:47;12.10;;;10.80;;
9968;SDS011;5025;48.890;9.278;2023-03-01T02:35:14;14.57;;;12.10;;
9968;SDS011;5025;48.890;9.278;2023-03-01T02:37:43;11.70;;;10.53;;
9968;SDS011;5025;48.890;9.278;2023-03-01T02:40:10;11.60;;;10.30;;
9968;SDS011;5025;48.890;9.278;2023-03-01T02:43:00;12.07;;;10.43;;
9968;SDS011;5025;48.890;9.278;2023-03-01T02:45:26;12.23;;;10.93;;
9968;SDS011;5025;48.890;9.278;2023-03-01T02:47:56;11.57;;;10.37;;
9968;SDS011;5025;48.890;9.278;2023-03-01T02:50:25;12.87;;;11.17;;
9968;SDS011;5025;48.890;9.278;2023-03-01T02:53:17;12.27;;;10.97;;
9968;SDS011;5025;48.890;9.278;2023-03-01T02:55:52;13.30;;;10.40;;
9968;SDS011;5025;48.890;9.278;2023-03-01T02:58:17;14.63;;;12.17;;
9968;SDS011;5025;48.890;9.278;2023-03-01T03:00:42;12.57;;;11.10;;
9968;SDS011;5025;48.890;9.278;2023-03-01T03:03:19;14.03;;;11.97;;
9968;SDS011;5025;48.890;9.278;2023-03-01T03:05:45;14.13;;;12.33;;
9968;SDS011;5025;48.890;9.278;2023-03-01T03:08:11;12.70;;;11.40;;
9968;SDS011;5025;48.890;9.278;2023-03-01T03:10:38;13.90;;;12.13;;
9968;SDS011;5025;48.890;9.278;2023-03-01T03:13:06;13.07;;;11.27;;
9968;SDS011;5025;48.890;9.278;2023-03-01T03:15:33;12.87;;;11.03;;
9968;SDS011;5025;48.890;9.278;2023-03-01T03:18:04;11.87;;;10.67;;
9968;SDS011;5025;48.890;9.278;2023-03-01T03:20:31;14.07;;;11.77;;
9968;SDS011;5025;48.890;9.278;2023-03-01T03:22:57;12.13;;;10.83;;
9968;SDS011;5025;48.890;9.278;2023-03-01T03:25:23;12.10;;;10.60;;
9968;SDS011;5025;48.890;9.278;2023-03-01T03:27:50;13.30;;;11.90;;
9968;SDS011;5025;48.890;9.278;2023-03-01T03:30:21;12.70;;;10.90;;
9968;SDS011;5025;48.890;9.278;2023-03-01T03:32:49;12.43;;;10.50;;
9968;SDS011;5025;48.890;9.278;2023-03-01T03:35:19;12.73;;;11.33;;
9968;SDS011;5025;48.890;9.278;2023-03-01T03:37:46;12.50;;;10.97;;
9968;SDS011;5025;48.890;9.278;2023-03-01T03:40:26;13.63;;;11.93;;
9968;SDS011;5025;48.890;9.278;2023-03-01T03:42:54;11.53;;;10.33;;
9968;SDS011;5025;48.890;9.278;2023-03-01T03:45:20;12.20;;;10.87;;
9968;SDS011;5025;48.890;9.278;2023-03-01T03:47:46;11.80;;;10.60;;
9968;SDS011;5025;48.890;9.278;2023-03-01T03:50:11;12.30;;;10.67;;
9968;SDS011;5025;48.890;9.278;2023-03-01T03:52:38;12.03;;;10.83;;
9968;SDS011;5025;48.890;9.278;2023-03-01T03:55:04;11.33;;;10.07;;
9968;SDS011;5025;48.890;9.278;2023-03-01T03:57:36;13.13;;;11.73;;
9968;SDS011;5025;48.890;9.278;2023-03-01T04:00:03;14.70;;;12.43;;
9968;SDS011;5025;48.890;9.278;2023-03-01T04:02:30;13.33;;;11.33;;
9968;SDS011;5025;48.890;9.278;2023-03-01T04:04:55;13.03;;;11.73;;
9968;SDS011;5025;48.890;9.278;2023-03-01T04:07:21;13.50;;;12.10;;
9968;SDS011;5025;48.890;9.278;2023-03-01T04:09:46;16.30;;;13.93;;
9968;SDS011;5025;48.890;9.278;2023-03-01T04:12:11;14.73;;;13.20;;
9968;SDS011;5025;48.890;9.278;2023-03-01T04:14:36;16.03;;;13.60;;
9968;SDS011;5025;48.890;9.278;2023-03-01T04:17:02;13.40;;;11.83;;
9968;SDS011;5025;48.890;9.278;2023-03-01T04:19:30;16.37;;;13.03;;
9968;SDS011;5025;48.890;9.278;2023-03-01T04:22:00;14.00;;;12.60;;
9968;SDS011;5025;48.890;9.278;2023-03-01T04:24:32;13.80;;;12.40;;
9968;SDS011;5025;48.890;9.278;2023-03-01T04:26:58;13.23;;;11.60;;
9968;SDS011;5025;48.890;9.278;2023-03-01T04:29:23;13.70;;;12.23;;
9968;SDS011;5025;48.890;9.278;2023-03-01T04:31:48;13.90;;;12.23;;
9968;SDS011;5025;48.890;9.278;2023-03-01T04:34:14;13.80;;;12.33;;
9968;SDS011;5025;48.890;9.278;2023-03-01T04:36:39;13.73;;;12.33;;
9968;SDS011;5025;48.890;9.278;2023-03-01T04:39:04;13.33;;;11.67;;
9968;SDS011;5025;48.890;9.278;2023-03-01T04:41:37;13.17;;;11.07;;
9968;SDS011;5025;48.890;9.278;2023-03-01T04:44:04;12.33;;;11.03;;
9968;SDS011;5025;48.890;9.278;2023-03-01T04:46:29;11.20;;;10.10;;
9968;SDS011;5025;48.890;9.278;2023-03-01T04:48:54;11.57;;;9.77;;
9968;SDS011;5025;48.890;9.278;2023-03-01T04:51:20;12.30;;;10.53;;
9968;SDS011;5025;48.890;9.278;2023-03-01T04:53:45;12.43;;;11.13;;
9968;SDS011;5025;48.890;9.278;2023-03-01T04:56:11;13.20;;;11.57;;
9968;SDS011;5025;48.890;9.278;2023-03-01T04:58:38;12.50;;;10.80;;
9968;SDS011;5025;48.890;9.278;2023-03-01T05:01:08;14.63;;;12.03;;
9968;SDS011;5025;48.890;9.278;2023-03-01T05:03:40;11.53;;;10.20;;
9968;SDS011;5025;48.890;9.278;2023-03-01T05:06:06;12.20;;;10.90;;
9968;SDS011;5025;48.890;9.278;2023-03-01T05:08:32;12.17;;;10.93;;
9968;SDS011;5025;48.890;9.278;2023-03-01T05:10:59;12.03;;;10.70;;
9968;SDS011;5025;48.890;9.278;2023-03-01T05:13:24;12.33;;;11.07;;
9968;SDS011;5025;48.890;9.278;2023-03-01T05:15:54;12.23;;;10.93;;
9968;SDS011;5025;48.890;9.278;2023-03-01T05:18:22;12.27;;;10.60;;
9968;SDS011;5025;48.890;9.278;2023-03-01T05:20:51;12.53;;;11.00;;
9968;SDS011;5025;48.890;9.278;2023-03-01T05:23:16;11.60;;;10.47;;
9968;SDS011;5025;48.890;9.278;2023-03-01T05:25:43;12.23;;;10.93;;
9968;SDS011;5025;48.890;9.278;2023-03-01T05:28:12;12.93;;;11.20;;
9968;SDS011;5025;48.890;9.278;2023-03-01T05:30:38;13.17;;;11.73;;
9968;SDS011;5025;48.890;9.278;2023-03-01T05:33:04;13.70;;;11.80;;
9968;SDS011;5025;48.890;9.278;2023-03-01T05:35:32;13.27;;;11.47;;
9968;SDS011;5025;48.890;9.278;2023-03-01T05:37:58;11.87;;;10.60;;
9968;SDS011;5025;48.890;9.278;2023-03-01T05:40:23;12.33;;;11.00;;
9968;SDS011;5025;48.890;9.278;2023-03-01T05:42:53;11.50;;;10.30;;
9968;SDS011;5025;48.890;9.278;2023-03-01T05:45:21;12.23;;;10.93;;
9968;SDS011;5025;48.890;9.278;2023-03-01T05:47:48;12.37;;;11.07;;
9968;SDS011;5025;48.890;9.278;2023-03-01T05:50:21;12.40;;;11.10;;
9968;SDS011;5025;48.890;9.278;2023-03-01T05:52:48;13.57;;;12.13;;
9968;SDS011;5025;48.890;9.278;2023-03-01T05:55:16;13.90;;;12.40;;
9968;SDS011;5025;48.890;9.278;2023-03-01T05:57:42;13.40;;;12.00;;
9968;SDS011;5025;48.890;9.278;2023-03-01T06:00:08;12.53;;;10.97;;
9968;SDS011;5025;48.890;9.278;2023-03-01T06:02:34;14.47;;;11.73;;
9968;SDS011;5025;48.890;9.278;2023-03-01T06:05:00;13.63;;;12.03;;
9968;SDS011;5025;48.890;9.278;2023-03-01T06:07:25;12.97;;;11.37;;
9968;SDS011;5025;48.890;9.278;2023-03-01T06:09:50;13.03;;;11.53;;
9968;SDS011;5025;48.890;9.278;2023-03-01T06:12:16;11.53;;;10.33;;
9968;SDS011;5025;48.890;9.278;2023-03-01T06:14:42;12.17;;;10.87;;
9968;SDS011;5025;48.890;9.278;2023-03-01T06:17:07;13.70;;;12.30;;
9968;SDS011;5025;48.890;9.278;2023-03-01T06:19:32;13.53;;;12.13;;
9968;SDS011;5025;48.890;9.278;2023-03-01T06:21:58;14.10;;;11.87;;
9968;SDS011;5025;48.890;9.278;2023-03-01T06:24:23;13.03;;;11.70;;
9968;SDS011;5025;48.890;9.278;2023-03-01T06:26:48;16.13;;;13.03;;
9968;SDS011;5025;48.890;9.278;2023-03-01T06:29:13;13.23;;;11.87;;
9968;SDS011;5025;48.890;9.278;2023-03-01T06:31:39;15.20;;;12.13;;
9968;SDS011;5025;48.890;9.278;2023-03-01T06:34:04;15.20;;;13.60;;
9968;SDS011;5025;48.890;9.278;2023-03-01T06:36:30;14.30;;;12.50;;
9968;SDS011;5025;48.890;9.278;2023-03-01T06:38:55;15.80;;;13.73;;
9968;SDS011;5025;48.890;9.278;2023-03-01T06:41:20;14.50;;;12.70;;
9968;SDS011;5025;48.890;9.278;2023-03-01T06:43:46;16.07;;;13.83;;
9968;SDS011;5025;48.890;9.278;2023-03-01T06:46:11;13.27;;;11.57;;
9968;SDS011;5025;48.890;9.278;2023-03-01T06:48:36;13.47;;;12.07;;
9968;SDS011;5025;48.890;9.278;2023-03-01T06:51:02;14.07;;;11.97;;
9968;SDS011;5025;48.890;9.278;2023-03-01T06:53:28;13.47;;;12.07;;
9968;SDS011;5025;48.890;9.278;2023-03-01T06:55:55;14.40;;;12.90;;
9968;SDS011;5025;48.890;9.278;2023-03-01T06:58:21;15.17;;;12.43;;
9968;SDS011;5025;48.890;9.278;2023-03-01T07:00:46;14.07;;;12.57;;
9968;SDS011;5025;48.890;9.278;2023-03-01T07:03:11;15.33;;;12.90;;
9968;SDS011;5025;48.890;9.278;2023-03-01T07:05:36;14.53;;;12.47;;
9968;SDS011;5025;48.890;9.278;2023-03-01T07:08:02;13.27;;;11.60;;
9968;SDS011;5025;48.890;9.278;2023-03-01T07:10:27;15.93;;;12.93;;
9968;SDS011;5025;48.890;9.278;2023-03-01T07:12:59;14.87;;;13.27;;
9968;SDS011;5025;48.890;9.278;2023-03-01T07:15:25;16.50;;;14.37;;
9968;SDS011;5025;48.890;9.278;2023-03-01T07:17:51;15.37;;;13.40;;
9968;SDS011;5025;48.890;9.278;2023-03-01T07:20:17;15.23;;;13.50;;
9968;SDS011;5025;48.890;9.278;2023-03-01T07:22:43;14.17;;;12.67;;
9968;SDS011;5025;48.890;9.278;2023-03-01T07:25:09;13.90;;;12.40;;
9968;SDS011;5025;48.890;9.278;2023-03-01T07:27:35;15.27;;;13.67;;
9968;SDS011;5025;48.890;9.278;2023-03-01T07:30:01;15.27;;;13.47;;
9968;SDS011;5025;48.890;9.278;2023-03-01T07:32:26;14.07;;;12.57;;
9968;SDS011;5025;48.890;9.278;2023-03-01T07:34:52;16.80;;;13.80;;
9968;SDS011;5025;48.890;9.278;2023-03-01T07:37:17;13.93;;;12.33;;
9968;SDS011;5025;48.890;9.278;2023-03-01T07:39:42;14.90;;;12.63;;
9968;SDS011;5025;48.890;9.278;2023-03-01T07:42:07;15.10;;;12.37;;
9968;SDS011;5025;48.890;9.278;2023-03-01T07:44:33;12.97;;;11.57;;
9968;SDS011;5025;48.890;9.278;2023-03-01T07:46:59;13.70;;;12.10;;
9968;SDS011;5025;48.890;9.278;2023-03-01T07:49:25;12.97;;;11.57;;
9968;SDS011;5025;48.890;9.278;2023-03-01T07:51:51;15.07;;;12.97;;
9968;SDS011;5025;48.890;9.278;2023-03-01T07:54:17;17.07;;;14.40;;
9968;SDS011;5025;48.890;9.278;2023-03-01T07:56:43;24.20;;;18.43;;
9968;SDS011;5025;48.890;9.278;2023-03-01T07:59:08;22.80;;;17.07;;
9968;SDS011;5025;48.890;9.278;2023-03-01T08:01:34;25.93;;;20.67;;
9968;SDS011;5025;48.890;9.278;2023-03-01T08:03:59;20.53;;;18.33;;
9968;SDS011;5025;48.890;9.278;2023-03-01T08:06:25;20.47;;;17.73;;
9968;SDS011;5025;48.890;9.278;2023-03-01T08:08:50;19.77;;;16.90;;
9968;SDS011;5025;48.890;9.278;2023-03-01T08:11:15;19.03;;;16.00;;
9968;SDS011;5025;48.890;9.278;2023-03-01T08:13:41;17.43;;;14.60;;
9968;SDS011;5025;48.890;9.278;2023-03-01T08:16:11;16.93;;;14.87;;
9968;SDS011;5025;48.890;9.278;2023-03-01T08:18:38;19.87;;;16.00;;
9968;SDS011;5025;48.890;9.278;2023-03-01T08:21:14;18.07;;;15.20;;
9968;SDS011;5025;48.890;9.278;2023-03-01T08:23:42;17.17;;;14.50;;
9968;SDS011;5025;48.890;9.278;2023-03-01T08:28:38;18.33;;;15.33;;
9968;SDS011;5025;48.890;9.278;2023-03-01T08:34:04;19.90;;;15.30;;
9968;SDS011;5025;48.890;9.278;2023-03-01T08:36:36;17.53;;;14.30;;
9968;SDS011;5025;48.890;9.278;2023-03-01T08:39:03;16.40;;;14.53;;
9968;SDS011;5025;48.890;9.278;2023-03-01T08:41:29;15.87;;;13.70;;
9968;SDS011;5025;48.890;9.278;2023-03-01T08:43:54;14.40;;;12.90;;
9968;SDS011;5025;48.890;9.278;2023-03-01T08:46:24;14.83;;;13.23;;
9968;SDS011;5025;48.890;9.278;2023-03-01T08:48:50;17.57;;;14.80;;
9968;SDS011;5025;48.890;9.278;2023-03-01T08:51:16;16.17;;;13.70;;
9968;SDS011;5025;48.890;9.278;2023-03-01T08:53:42;16.43;;;14.10;;
9968;SDS011;5025;48.890;9.278;2023-03-01T08:56:08;17.03;;;14.53;;
9968;SDS011;5025;48.890;9.278;2023-03-01T08:58:34;15.63;;;13.33;;
9968;SDS011;5025;48.890;9.278;2023-03-01T09:01:00;16.20;;;13.97;;
9968;SDS011;5025;48.890;9.278;2023-03-01T09:03:25;15.30;;;13.67;;
9968;SDS011;5025;48.890;9.278;2023-03-01T09:05:52;15.90;;;14.00;;
9968;SDS011;5025;48.890;9.278;2023-03-01T09:08:18;15.83;;;13.53;;
9968;SDS011;5025;48.890;9.278;2023-03-01T09:10:44;13.73;;;12.30;;
9968;SDS011;5025;48.890;9.278;2023-03-01T09:13:09;13.93;;;12.17;;
9968;SDS011;5025;48.890;9.278;2023-03-01T09:15:38;14.80;;;13.20;;
9968;SDS011;5025;48.890;9.278;2023-03-01T09:18:04;14.00;;;12.50;;
9968;SDS011;5025;48.890;9.278;2023-03-01T09:20:30;15.80;;;13.67;;
9968;SDS011;5025;48.890;9.278;2023-03-01T09:22:56;15.87;;;14.17;;
9968;SDS011;5025;48.890;9.278;2023-03-01T09:25:21;17.47;;;14.30;;
9968;SDS011;5025;48.890;9.278;2023-03-01T09:27:47;14.50;;;13.00;;
9968;SDS011;5025;48.890;9.278;2023-03-01T09:30:15;15.93;;;14.23;;
9968;SDS011;5025;48.890;9.278;2023-03-01T09:32:40;16.23;;;14.53;;
9968;SDS011;5025;48.890;9.278;2023-03-01T09:35:07;14.93;;;13.40;;
9968;SDS011;5025;48.890;9.278;2023-03-01T09:37:33;13.80;;;12.40;;
9968;SDS011;5025;48.890;9.278;2023-03-01T09:39:59;13.10;;;11.70;;
9968;SDS011;5025;48.890;9.278;2023-03-01T09:42:25;14.07;;;12.67;;
9968;SDS011;5025;48.890;9.278;2023-03-01T09:44:57;13.00;;;11.70;;
9968;SDS011;5025;48.890;9.278;2023-03-01T09:47:31;14.53;;;12.70;;
9968;SDS011;5025;48.890;9.278;2023-03-01T09:50:02;14.80;;;13.20;;
9968;SDS011;5025;48.890;9.278;2023-03-01T09:53:28;16.07;;;13.57;;
9968;SDS011;5025;48.890;9.278;2023-03-01T09:55:38;16.83;;;14.57;;
9968;SDS011;5025;48.890;9.278;2023-03-01T10:00:54;15.40;;;13.90;;
9968;SDS011;5025;48.890;9.278;2023-03-01T10:03:26;13.70;;;12.30;;
9968;SDS011;5025;48.890;9.278;2023-03-01T10:08:27;13.60;;;12.20;;
9968;SDS011;5025;48.890;9.278;2023-03-01T10:10:55;14.53;;;13.03;;
9968;SDS011;5025;48.890;9.278;2023-03-01T10:16:09;15.67;;;14.07;;
9968;SDS011;5025;48.890;9.278;2023-03-01T10:18:39;13.53;;;12.13;;
9968;SDS011;5025;48.890;9.278;2023-03-01T10:21:14;13.37;;;11.97;;
9968;SDS011;5025;48.890;9.278;2023-03-01T10:23:42;13.43;;;11.47;;
9968;SDS011;5025;48.890;9.278;2023-03-01T10:29:07;14.00;;;12.53;;
9968;SDS011;5025;48.890;9.278;2023-03-01T10:31:38;15.17;;;13.50;;
9968;SDS011;5025;48.890;9.278;2023-03-01T10:34:11;15.77;;;14.07;;
9968;SDS011;5025;48.890;9.278;2023-03-01T10:36:41;14.47;;;13.07;;
9968;SDS011;5025;48.890;9.278;2023-03-01T10:39:15;15.90;;;14.20;;
9968;SDS011;5025;48.890;9.278;2023-03-01T10:44:48;14.83;;;13.23;;
9968;SDS011;5025;48.890;9.278;2023-03-01T10:47:18;13.20;;;11.90;;
9968;SDS011;5025;48.890;9.278;2023-03-01T10:52:26;13.97;;;12.57;;
9968;SDS011;5025;48.890;9.278;2023-03-01T10:54:56;12.40;;;11.10;;
9968;SDS011;5025;48.890;9.278;2023-03-01T11:00:24;14.33;;;12.90;;
9968;SDS011;5025;48.890;9.278;2023-03-01T11:05:23;13.30;;;12.00;;
9968;SDS011;5025;48.890;9.278;2023-03-01T11:07:53;13.43;;;11.83;;
9968;SDS011;5025;48.890;9.278;2023-03-01T11:10:28;13.03;;;11.73;;
9968;SDS011;5025;48.890;9.278;2023-03-01T11:15:59;13.30;;;10.97;;
9968;SDS011;5025;48.890;9.278;2023-03-01T11:18:25;12.40;;;11.20;;
9968;SDS011;5025;48.890;9.278;2023-03-01T11:20:52;11.47;;;10.27;;
9968;SDS011;5025;48.890;9.278;2023-03-01T11:23:19;11.17;;;10.07;;
9968;SDS011;5025;48.890;9.278;2023-03-01T11:25:48;9.80;;;8.90;;
9968;SDS011;5025;48.890;9.278;2023-03-01T11:28:19;10.97;;;9.90;;
9968;SDS011;5025;48.890;9.278;2023-03-01T11:31:09;11.33;;;10.27;;
9968;SDS011;5025;48.890;9.278;2023-03-01T11:33:44;10.47;;;9.47;;
9968;SDS011;5025;48.890;9.278;2023-03-01T11:38:55;11.73;;;10.63;;
9968;SDS011;5025;48.890;9.278;2023-03-01T11:41:29;10.23;;;9.30;;
9968;SDS011;5025;48.890;9.278;2023-03-01T12:08:33;10.97;;;9.93;;
9968;SDS011;5025;48.890;9.278;2023-03-01T12:11:18;9.80;;;9.00;;
9968;SDS011;5025;48.890;9.278;2023-03-01T12:14:23;10.70;;;9.70;;
9968;SDS011;5025;48.890;9.278;2023-03-01T12:19:58;10.60;;;9.60;;
9968;SDS011;5025;48.890;9.278;2023-03-01T12:25:39;12.30;;;11.10;;
9968;SDS011;5025;48.890;9.278;2023-03-01T12:30:54;10.13;;;9.13;;
9968;SDS011;5025;48.890;9.278;2023-03-01T12:49:58;9.37;;;8.47;;
9968;SDS011;5025;48.890;9.278;2023-03-01T12:55:36;9.73;;;8.83;;
9968;SDS011;5025;48.890;9.278;2023-03-01T12:58:21;8.47;;;7.77;;
9968;SDS011;5025;48.890;9.278;2023-03-01T13:06:40;8.53;;;7.83;;
9968;SDS011;5025;48.890;9.278;2023-03-01T13:09:25;9.30;;;8.47;;
9968;SDS011;5025;48.890;9.278;2023-03-01T13:12:01;12.03;;;10.93;;
9968;SDS011;5025;48.890;9.278;2023-03-01T13:16:58;10.20;;;9.20;;
9968;SDS011;5025;48.890;9.278;2023-03-01T13:19:27;11.57;;;10.37;;
9968;SDS011;5025;48.890;9.278;2023-03-01T13:22:25;10.70;;;9.70;;
9968;SDS011;5025;48.890;9.278;2023-03-01T13:25:00;9.93;;;9.10;;
9968;SDS011;5025;48.890;9.278;2023-03-01T13:27:26;12.13;;;10.93;;
9968;SDS011;5025;48.890;9.278;2023-03-01T13:29:55;11.93;;;10.83;;
9968;SDS011;5025;48.890;9.278;2023-03-01T13:32:36;11.73;;;10.63;;
9968;SDS011;5025;48.890;9.278;2023-03-01T13:37:41;12.70;;;11.50;;
9968;SDS011;5025;48.890;9.278;2023-03-01T13:42:46;13.20;;;11.90;;
9968;SDS011;5025;48.890;9.278;2023-03-01T13:48:25;13.10;;;11.80;;
9968;SDS011;5025;48.890;9.278;2023-03-01T13:51:03;11.87;;;10.77;;
9968;SDS011;5025;48.890;9.278;2023-03-01T13:53:40;13.20;;;11.80;;
9968;SDS011;5025;48.890;9.278;2023-03-01T13:56:13;13.47;;;12.27;;
9968;SDS011;5025;48.890;9.278;2023-03-01T13:58:44;14.17;;;12.87;;
9968;SDS011;5025;48.890;9.278;2023-03-01T14:01:20;13.73;;;12.43;;
9968;SDS011;5025;48.890;9.278;2023-03-01T14:03:51;12.67;;;11.57;;
9968;SDS011;5025;48.890;9.278;2023-03-01T14:06:21;15.07;;;13.70;;
9968;SDS011;5025;48.890;9.278;2023-03-01T14:08:49;12.60;;;11.43;;
9968;SDS011;5025;48.890;9.278;2023-03-01T14:14:06;13.23;;;12.00;;
9968;SDS011;5025;48.890;9.278;2023-03-01T14:19:31;13.80;;;12.60;;
9968;SDS011;5025;48.890;9.278;2023-03-01T14:22:04;13.60;;;12.37;;
9968;SDS011;5025;48.890;9.278;2023-03-01T14:24:35;14.20;;;12.90;;
9968;SDS011;5025;48.890;9.278;2023-03-01T14:27:04;13.30;;;12.10;;
9968;SDS011;5025;48.890;9.278;2023-03-01T14:29:37;14.17;;;12.90;;
9968;SDS011;5025;48.890;9.278;2023-03-01T14:32:10;13.73;;;12.43;;
9968;SDS011;5025;48.890;9.278;2023-03-01T14:34:43;14.17;;;12.87;;
9968;SDS011;5025;48.890;9.278;2023-03-01T14:37:16;11.03;;;10.03;;
9968;SDS011;5025;48.890;9.278;2023-03-01T14:39:44;14.83;;;13.43;;
9968;SDS011;5025;48.890;9.278;2023-03-01T14:42:10;15.90;;;14.23;;
9968;SDS011;5025;48.890;9.278;2023-03-01T14:44:37;14.20;;;12.90;;
9968;SDS011;5025;48.890;9.278;2023-03-01T14:47:03;13.73;;;12.47;;
9968;SDS011;5025;48.890;9.278;2023-03-01T14:49:30;14.37;;;13.07;;
9968;SDS011;5025;48.890;9.278;2023-03-01T14:51:57;14.13;;;12.83;;
9968;SDS011;5025;48.890;9.278;2023-03-01T14:54:28;13.97;;;12.67;;
9968;SDS011;5025;48.890;9.278;2023-03-01T14:57:05;14.73;;;13.43;;
9968;SDS011;5025;48.890;9.278;2023-03-01T14:59:32;14.53;;;13.07;;
9968;SDS011;5025;48.890;9.278;2023-03-01T15:01:59;12.07;;;10.93;;
9968;SDS011;5025;48.890;9.278;2023-03-01T15:04:26;15.27;;;13.77;;
9968;SDS011;5025;48.890;9.278;2023-03-01T15:06:53;15.07;;;13.60;;
9968;SDS011;5025;48.890;9.278;2023-03-01T15:09:20;13.90;;;12.70;;
9968;SDS011;5025;48.890;9.278;2023-03-01T15:11:47;13.83;;;12.53;;
9968;SDS011;5025;48.890;9.278;2023-03-01T15:14:25;14.03;;;12.30;;
9968;SDS011;5025;48.890;9.278;2023-03-01T15:17:04;14.17;;;12.87;;
9968;SDS011;5025;48.890;9.278;2023-03-01T15:19:29;12.60;;;11.40;;
9968;SDS011;5025;48.890;9.278;2023-03-01T15:21:55;14.20;;;12.80;;
9968;SDS011;5025;48.890;9.278;2023-03-01T15:24:25;14.07;;;12.77;;
9968;SDS011;5025;48.890;9.278;2023-03-01T15:26:53;14.17;;;12.87;;
9968;SDS011;5025;48.890;9.278;2023-03-01T15:29:23;13.77;;;12.47;;
9968;SDS011;5025;48.890;9.278;2023-03-01T15:31:59;13.97;;;12.57;;
9968;SDS011;5025;48.890;9.278;2023-03-01T15:34:37;14.13;;;12.83;;
9968;SDS011;5025;48.890;9.278;2023-03-01T15:37:04;13.43;;;12.13;;
9968;SDS011;5025;48.890;9.278;2023-03-01T15:39:41;13.60;;;12.30;;
9968;SDS011;5025;48.890;9.278;2023-03-01T15:42:11;12.77;;;11.60;;
9968;SDS011;5025;48.890;9.278;2023-03-01T15:44:39;12.97;;;11.70;;
9968;SDS011;5025;48.890;9.278;2023-03-01T15:47:26;13.70;;;12.37;;
9968;SDS011;5025;48.890;9.278;2023-03-01T15:49:54;13.00;;;11.90;;
9968;SDS011;5025;48.890;9.278;2023-03-01T15:52:25;12.20;;;11.10;;
9968;SDS011;5025;48.890;9.278;2023-03-01T15:55:00;13.43;;;12.13;;
9968;SDS011;5025;48.890;9.278;2023-03-01T15:57:28;14.17;;;12.77;;
9968;SDS011;5025;48.890;9.278;2023-03-01T15:59:54;12.93;;;11.73;;
9968;SDS011;5025;48.890;9.278;2023-03-01T16:02:19;13.30;;;11.90;;
9968;SDS011;5025;48.890;9.278;2023-03-01T16:04:46;13.13;;;11.83;;
9968;SDS011;5025;48.890;9.278;2023-03-01T16:07:11;13.27;;;11.97;;
9968;SDS011;5025;48.890;9.278;2023-03-01T16:09:37;13.10;;;11.90;;
9968;SDS011;5025;48.890;9.278;2023-03-01T16:12:02;13.80;;;12.40;;
9968;SDS011;5025;48.890;9.278;2023-03-01T16:14:27;13.77;;;12.47;;
9968;SDS011;5025;48.890;9.278;2023-03-01T16:16:53;14.03;;;12.73;;
9968;SDS011;5025;48.890;9.278;2023-03-01T16:19:18;13.33;;;12.03;;
9968;SDS011;5025;48.890;9.278;2023-03-01T16:21:43;13.57;;;12.27;;
9968;SDS011;5025;48.890;9.278;2023-03-01T16:24:11;13.87;;;12.47;;
9968;SDS011;5025;48.890;9.278;2023-03-01T16:26:37;13.17;;;11.97;;
9968;SDS011;5025;48.890;9.278;2023-03-01T16:29:02;11.70;;;10.60;;
9968;SDS011;5025;48.890;9.278;2023-03-01T16:31:28;13.40;;;12.20;;
9968;SDS011;5025;48.890;9.278;2023-03-01T16:33:57;13.50;;;12.20;;
9968;SDS011;5025;48.890;9.278;2023-03-01T16:36:25;13.33;;;12.03;;
9968;SDS011;5025;48.890;9.278;2023-03-01T16:38:53;14.17;;;12.83;;
9968;SDS011;5025;48.890;9.278;2023-03-01T16:41:20;13.23;;;12.03;;
9968;SDS011;5025;48.890;9.278;2023-03-01T16:43:47;13.70;;;12.37;;
9968;SDS011;5025;48.890;9.278;2023-03-01T16:46:14;13.53;;;12.17;;
9968;SDS011;5025;48.890;9.278;2023-03-01T16:48:40;12.47;;;11.30;;
9968;SDS011;5025;48.890;9.278;2023-03-01T16:51:06;10.33;;;9.33;;
9968;SDS011;5025;48.890;9.278;2023-03-01T16:53:32;11.53;;;10.43;;
9968;SDS011;5025;48.890;9.278;2023-03-01T16:55:58;10.70;;;9.70;;
9968;SDS011;5025;48.890;9.278;2023-03-01T16:58:24;13.00;;;11.67;;